createdAt,value
2018-06-19T00:00:17.734Z,0.7
2018-06-19T00:02:17.548Z,0.6
2018-06-19T00:04:18.364Z,0.8
2018-06-19T00:06:17.977Z,0.8
2018-06-19T00:08:17.759Z,0.5
2018-06-19T00:10:17.985Z,0.7
2018-06-19T00:12:17.794Z,0.7
2018-06-19T00:14:17.614Z,0.7
2018-06-19T00:16:17.891Z,0.7
2018-06-19T00:18:17.757Z,0.6
2018-06-19T00:20:17.569Z,0.7
2018-06-19T00:22:18.389Z,0.6
2018-06-19T00:24:18.184Z,0.6
2018-06-19T00:26:17.746Z,0.5
2018-06-19T00:28:17.569Z,0.7
2018-06-19T00:30:18.389Z,0.7
2018-06-19T00:32:18.161Z,0.7
2018-06-19T00:34:17.945Z,0.5
2018-06-19T00:36:18.484Z,0.9
2018-06-19T00:38:18.286Z,0.9
2018-06-19T00:40:17.567Z,0.8
2018-06-19T00:42:18.382Z,1
2018-06-19T00:44:18.188Z,0.7
2018-06-19T00:46:17.743Z,0.8
2018-06-19T00:48:18.503Z,0.7
2018-06-19T00:50:18.294Z,0.5
2018-06-19T00:52:18.100Z,1.2
2018-06-19T00:54:17.907Z,0.9
2018-06-19T00:56:18.473Z,0.6
2018-06-19T00:58:18.264Z,0.8
2018-06-19T01:00:18.044Z,0.9
2018-06-19T01:02:17.843Z,0.6
2018-06-19T01:04:17.636Z,0.7
2018-06-19T01:06:17.712Z,0.8
2018-06-19T01:08:18.525Z,0.7
2018-06-19T01:10:17.806Z,0.4
2018-06-19T01:12:17.604Z,1
2018-06-19T01:14:18.427Z,0.8
2018-06-19T01:16:17.995Z,0.6
2018-06-19T01:18:17.863Z,1
2018-06-19T01:20:17.648Z,1
2018-06-19T01:22:18.482Z,1.1
2018-06-19T01:24:18.277Z,0.9
2018-06-19T01:26:18.344Z,0.8
2018-06-19T01:28:18.138Z,0.6
2018-06-19T01:30:17.964Z,0.8
2018-06-19T01:32:17.775Z,0.7
2018-06-19T01:34:17.599Z,0.6
2018-06-19T01:36:18.252Z,1.3
2018-06-19T01:38:18.090Z,0.8
2018-06-19T01:40:17.644Z,1
2018-06-19T01:42:18.441Z,1
2018-06-19T01:44:18.225Z,0.7
2018-06-19T01:46:18.335Z,0.8
2018-06-19T01:48:18.115Z,0.7
2018-06-19T01:50:17.928Z,0.6
2018-06-19T01:52:17.713Z,0.8
2018-06-19T01:54:18.533Z,0.8
2018-06-19T01:56:17.935Z,0.9
2018-06-19T01:58:17.732Z,0.9
2018-06-19T02:00:18.529Z,0.8
2018-06-19T02:02:18.328Z,1.1
2018-06-19T02:04:18.118Z,0.8
2018-06-19T02:06:18.239Z,0.8
2018-06-19T02:08:18.062Z,1.1
2018-06-19T02:10:18.341Z,0.8
2018-06-19T02:12:18.164Z,0.6
2018-06-19T02:14:18.019Z,0.9
2018-06-19T02:16:17.620Z,0.9
2018-06-19T02:18:18.495Z,0.9
2018-06-19T02:20:18.313Z,1.1
2018-06-19T02:22:18.151Z,1
2018-06-19T02:24:17.939Z,0.8
2018-06-19T02:26:17.597Z,0.9
2018-06-19T02:28:18.391Z,0.8
2018-06-19T02:30:18.224Z,1.4
2018-06-19T02:32:17.879Z,1
2018-06-19T02:34:17.700Z,0.7
2018-06-19T02:36:18.341Z,0.7
2018-06-19T02:38:18.129Z,1.4
2018-06-19T02:40:18.454Z,0.9
2018-06-19T02:42:18.294Z,1.1
2018-06-19T02:44:18.075Z,1.3
2018-06-19T02:46:18.212Z,1.1
2018-06-19T02:48:18.014Z,1
2018-06-19T02:50:17.811Z,0.8
2018-06-19T02:52:17.621Z,0.7
2018-06-19T02:54:18.423Z,0.8
2018-06-19T02:56:18.006Z,1
2018-06-19T02:58:17.859Z,0.7
2018-06-19T03:00:17.800Z,1.3
2018-06-19T03:02:17.728Z,1.1
2018-06-19T03:04:18.513Z,1.2
2018-06-19T03:06:18.078Z,1
2018-06-19T03:08:17.902Z,1
2018-06-19T03:10:18.219Z,1.2
2018-06-19T03:12:18.037Z,0.9
2018-06-19T03:14:17.836Z,1
2018-06-19T03:16:18.417Z,1.1
2018-06-19T03:18:18.316Z,0.8
2018-06-19T03:20:18.157Z,0.9
2018-06-19T03:22:17.970Z,1.3
2018-06-19T03:24:17.761Z,1
2018-06-19T03:26:18.321Z,1.5
2018-06-19T03:28:18.132Z,1.3
2018-06-19T03:30:18.046Z,1.6
2018-06-19T03:32:18.096Z,1.6
2018-06-19T03:34:17.905Z,1.5
2018-06-19T03:36:18.478Z,1.3
2018-06-19T03:38:18.283Z,0.9
2018-06-19T03:40:17.596Z,1.2
2018-06-19T03:42:18.444Z,2.1
2018-06-19T03:44:18.260Z,1
2018-06-19T03:46:17.863Z,1
2018-06-19T03:48:18.685Z,1.2
2018-06-19T03:50:18.539Z,1
2018-06-19T03:52:18.350Z,0.8
2018-06-19T03:54:18.149Z,1.1
2018-06-19T03:56:18.285Z,1.3
2018-06-19T03:58:19.095Z,1.1
2018-06-19T04:00:17.921Z,1
2018-06-19T04:02:18.721Z,1
2018-06-19T04:04:18.514Z,1.1
2018-06-19T04:06:17.590Z,0.7
2018-06-19T04:08:18.439Z,1.2
2018-06-19T04:10:17.708Z,1.1
2018-06-19T04:12:18.501Z,1.6
2018-06-19T04:14:18.320Z,1.3
2018-06-19T04:16:17.863Z,1
2018-06-19T04:18:17.793Z,1.2
2018-06-19T04:20:17.703Z,1.4
2018-06-19T04:22:18.527Z,1.3
2018-06-19T04:24:18.349Z,1.2
2018-06-19T04:26:17.527Z,1.1
2018-06-19T04:28:18.318Z,1.4
2018-06-19T04:30:18.120Z,1.1
2018-06-19T04:32:17.953Z,1.4
2018-06-19T04:34:17.734Z,0.9
2018-06-19T04:36:19.068Z,0.8
2018-06-19T04:38:17.873Z,1
2018-06-19T04:40:18.165Z,1.3
2018-06-19T04:42:17.988Z,1.5
2018-06-19T04:44:17.796Z,1.3
2018-06-19T04:46:18.398Z,1.7
2018-06-19T04:48:18.187Z,1.5
2018-06-19T04:50:17.992Z,1.8
2018-06-19T04:52:17.822Z,1.7
2018-06-19T04:54:17.629Z,1.3
2018-06-19T04:56:18.222Z,1.4
2018-06-19T04:58:18.022Z,1.8
2018-06-19T05:00:17.885Z,1.7
2018-06-19T05:02:17.665Z,2
2018-06-19T05:04:18.499Z,1.8
2018-06-19T05:06:17.707Z,1.6
2018-06-19T05:08:17.534Z,1.1
2018-06-19T05:10:17.861Z,1.7
2018-06-19T05:12:17.660Z,1.9
2018-06-19T05:14:18.450Z,2.1
2018-06-19T05:16:17.546Z,1.9
2018-06-19T05:18:18.386Z,1.6
2018-06-19T05:20:18.293Z,1.5
2018-06-19T05:22:18.220Z,1.8
2018-06-19T05:24:18.049Z,1.7
2018-06-19T05:26:18.112Z,2.1
2018-06-19T05:28:17.907Z,2.1
2018-06-19T05:30:17.741Z,2
2018-06-19T05:32:17.622Z,1.8
2018-06-19T05:34:18.429Z,1.8
2018-06-19T05:36:18.229Z,1.7
2018-06-19T05:38:18.004Z,2.5
2018-06-19T05:40:18.232Z,2.4
2018-06-19T05:42:17.909Z,3.3
2018-06-19T05:44:17.703Z,2.9
2018-06-19T05:46:17.765Z,2.9
2018-06-19T05:48:18.682Z,3.1
2018-06-19T05:50:18.516Z,2.8
2018-06-19T05:52:18.314Z,3.3
2018-06-19T05:54:18.103Z,3.7
2018-06-19T05:56:18.232Z,2.8
2018-06-19T05:58:18.038Z,3.1
2018-06-19T06:00:17.946Z,4.2
2018-06-19T06:02:17.728Z,3.5
2018-06-19T06:04:17.538Z,3.4
2018-06-19T06:06:18.142Z,3.4
2018-06-19T06:08:17.929Z,3.4
2018-06-19T06:10:19.257Z,3.6
2018-06-19T06:12:18.055Z,3.9
2018-06-19T06:14:17.841Z,4.4
2018-06-19T06:16:17.914Z,4
2018-06-19T06:18:17.821Z,3.7
2018-06-19T06:20:17.625Z,4.7
2018-06-19T06:22:17.706Z,5.8
2018-06-19T06:24:18.505Z,4
2018-06-19T06:26:18.335Z,4.4
2018-06-19T06:28:18.139Z,4.6
2018-06-19T06:30:17.945Z,4.4
2018-06-19T06:32:18.758Z,5
2018-06-19T06:34:17.552Z,5.5
2018-06-19T06:36:17.716Z,5.5
2018-06-19T06:38:18.528Z,4.7
2018-06-19T06:40:18.781Z,5.2
2018-06-19T06:42:17.577Z,5.6
2018-06-19T06:44:18.396Z,4.7
2018-06-19T06:46:18.484Z,6
2018-06-19T06:48:18.287Z,4.8
2018-06-19T06:50:18.179Z,5.4
2018-06-19T06:52:18.229Z,4.1
2018-06-19T06:54:18.020Z,4.4
2018-06-19T06:56:17.573Z,3.1
2018-06-19T06:58:18.365Z,4.5
2018-06-19T07:00:18.162Z,4.6
2018-06-19T07:02:17.967Z,3.8
2018-06-19T07:04:17.743Z,4.7
2018-06-19T07:06:17.808Z,4.7
2018-06-19T07:08:17.631Z,4.3
2018-06-19T07:10:17.919Z,4.4
2018-06-19T07:12:17.925Z,3.9
2018-06-19T07:14:17.721Z,4.6
2018-06-19T07:16:17.873Z,4.7
2018-06-19T07:18:17.742Z,4.3
2018-06-19T07:20:17.531Z,4.5
2018-06-19T07:22:18.345Z,3.2
2018-06-19T07:24:18.168Z,3.8
2018-06-19T07:26:17.794Z,4.7
2018-06-19T07:28:17.566Z,3.7
2018-06-19T07:30:18.360Z,4.7
2018-06-19T07:32:18.151Z,4.8
2018-06-19T07:34:17.950Z,4.1
2018-06-19T07:36:17.993Z,3.9
2018-06-19T07:38:17.851Z,3.8
2018-06-19T07:40:18.194Z,3.9
2018-06-19T07:42:17.984Z,4.1
2018-06-19T07:44:17.781Z,3.7
2018-06-19T07:46:18.296Z,3.6
2018-06-19T07:48:18.121Z,4.1
2018-06-19T07:50:18.082Z,3.6
2018-06-19T07:52:17.872Z,2.6
2018-06-19T07:54:17.682Z,2.6
2018-06-19T07:56:17.795Z,2.9
2018-06-19T07:58:17.613Z,2.3
2018-06-19T08:00:18.422Z,2.6
2018-06-19T08:02:18.209Z,3.6
2018-06-19T08:04:17.976Z,2.6
2018-06-19T08:06:18.043Z,4.2
2018-06-19T08:08:17.831Z,3.8
2018-06-19T08:10:18.082Z,2.6
2018-06-19T08:12:17.888Z,3
2018-06-19T08:14:17.685Z,2.8
2018-06-19T08:16:17.778Z,3.5
2018-06-19T08:18:17.626Z,1.8
2018-06-19T08:20:18.447Z,2.5
2018-06-19T08:22:18.252Z,2.4
2018-06-19T08:24:18.031Z,2.6
2018-06-19T08:26:17.637Z,2.2
2018-06-19T08:28:18.430Z,2.7
2018-06-19T08:30:18.250Z,2.5
2018-06-19T08:32:18.052Z,2.1
2018-06-19T08:34:17.828Z,1.7
2018-06-19T08:36:18.384Z,2.9
2018-06-19T08:38:18.315Z,2.4
2018-06-19T08:40:17.657Z,1.8
2018-06-19T08:42:18.477Z,2.8
2018-06-19T08:44:18.288Z,2.4
2018-06-19T08:46:17.852Z,1.8
2018-06-19T08:48:17.664Z,2.4
2018-06-19T08:50:18.522Z,2
2018-06-19T08:52:18.324Z,2.1
2018-06-19T08:54:18.219Z,1.9
2018-06-19T08:56:17.899Z,1.7
2018-06-19T08:58:17.705Z,1.8
2018-06-19T09:00:18.567Z,1.9
2018-06-19T09:02:17.589Z,1.2
2018-06-19T09:04:18.384Z,1.9
2018-06-19T09:06:17.578Z,1.7
2018-06-19T09:08:18.389Z,1.3
2018-06-19T09:10:17.666Z,1.7
2018-06-19T09:12:18.485Z,1.3
2018-06-19T09:14:18.309Z,1.3
2018-06-19T09:16:17.865Z,1.1
2018-06-19T09:18:17.738Z,0.8
2018-06-19T09:20:17.614Z,1.3
2018-06-19T09:22:18.456Z,1.1
2018-06-19T09:24:18.273Z,1.1
2018-06-19T09:26:18.453Z,0.8
2018-06-19T09:28:18.252Z,1.1
2018-06-19T09:30:18.025Z,1.4
2018-06-19T09:32:17.825Z,0.8
2018-06-19T09:34:17.617Z,1.8
2018-06-19T09:36:17.935Z,0.9
2018-06-19T09:38:17.752Z,1.6
2018-06-19T09:40:18.024Z,1
2018-06-19T09:42:17.803Z,1
2018-06-19T09:44:17.598Z,1.2
2018-06-19T09:46:18.183Z,1
2018-06-19T09:48:17.995Z,1.3
2018-06-19T09:50:17.817Z,1.5
2018-06-19T09:52:17.642Z,1.2
2018-06-19T09:54:18.482Z,1
2018-06-19T09:56:17.570Z,1
2018-06-19T09:58:18.408Z,1
2018-06-19T10:00:18.345Z,0.9
2018-06-19T10:02:18.158Z,0.4
2018-06-19T10:04:17.979Z,1.5
2018-06-19T10:06:18.144Z,1
2018-06-19T10:08:17.986Z,0.6
2018-06-19T10:10:18.277Z,1.2
2018-06-19T10:12:18.185Z,1
2018-06-19T10:14:18.269Z,0.8
2018-06-19T10:16:17.849Z,0.6
2018-06-19T10:18:17.736Z,1.2
2018-06-19T10:20:17.552Z,1
2018-06-19T10:22:18.361Z,1
2018-06-19T10:24:18.191Z,1.1
2018-06-19T10:26:18.297Z,0.7
2018-06-19T10:28:18.127Z,0.8
2018-06-19T10:30:17.978Z,1
2018-06-19T10:32:17.808Z,0.5
2018-06-19T10:34:17.603Z,0.9
2018-06-19T10:36:18.248Z,0.9
2018-06-19T10:38:18.047Z,0.7
2018-06-19T10:40:18.450Z,0.9
2018-06-19T10:42:18.355Z,0.8
2018-06-19T10:44:18.177Z,0.8
2018-06-19T10:46:17.708Z,0.6
2018-06-19T10:48:18.548Z,0.9
2018-06-19T10:50:18.412Z,0.8
2018-06-19T10:52:18.221Z,0.8
2018-06-19T10:54:17.996Z,0.8
2018-06-19T10:56:17.551Z,1
2018-06-19T10:58:18.375Z,1.5
2018-06-19T11:00:18.275Z,0.9
2018-06-19T11:02:18.083Z,0.7
2018-06-19T11:04:17.898Z,0.9
2018-06-19T11:06:17.679Z,0.8
2018-06-19T11:08:18.595Z,0.8
2018-06-19T11:10:18.122Z,0.6
2018-06-19T11:12:17.937Z,0.8
2018-06-19T11:14:17.746Z,1.1
2018-06-19T11:16:18.323Z,1.2
2018-06-19T11:18:18.190Z,0.8
2018-06-19T11:20:18.048Z,0.9
2018-06-19T11:22:17.878Z,0.7
2018-06-19T11:24:17.712Z,1.1
2018-06-19T11:26:17.865Z,0.7
2018-06-19T11:28:17.666Z,0.6
2018-06-19T11:30:18.522Z,1.4
2018-06-19T11:32:18.317Z,1.2
2018-06-19T11:34:18.125Z,0.8
2018-06-19T11:36:17.694Z,1.4
2018-06-19T11:38:18.523Z,0.8
2018-06-19T11:40:17.925Z,0.8
2018-06-19T11:42:17.730Z,0.5
2018-06-19T11:44:17.542Z,0.7
2018-06-19T11:46:18.078Z,0.8
2018-06-19T11:48:17.929Z,0.5
2018-06-19T11:50:17.741Z,1
2018-06-19T11:52:18.544Z,0.8
2018-06-19T11:54:18.383Z,1.1
2018-06-19T11:56:18.245Z,0.6
2018-06-19T11:58:18.058Z,0.7
2018-06-19T12:00:17.879Z,0.9
2018-06-19T12:02:17.692Z,0.6
2018-06-19T12:04:18.492Z,1
2018-06-19T12:06:18.005Z,1.1
2018-06-19T12:08:17.847Z,0.7
2018-06-19T12:10:18.124Z,1.2
2018-06-19T12:12:17.945Z,1
2018-06-19T12:14:17.736Z,0.7
2018-06-19T12:16:18.300Z,0.9
2018-06-19T12:18:18.196Z,1.3
2018-06-19T12:20:18.008Z,0.8
2018-06-19T12:22:17.861Z,1.6
2018-06-19T12:24:17.674Z,0.6
2018-06-19T12:26:18.311Z,0.9
2018-06-19T12:28:18.148Z,0.8
2018-06-19T12:30:18.044Z,0.8
2018-06-19T12:32:17.859Z,1.4
2018-06-19T12:34:17.666Z,1.2
2018-06-19T12:36:17.826Z,1
2018-06-19T12:38:17.644Z,1.3
2018-06-19T12:40:17.919Z,1.1
2018-06-19T12:42:17.717Z,0.9
2018-06-19T12:44:18.521Z,0.7
2018-06-19T12:46:18.259Z,1.2
2018-06-19T12:48:18.085Z,0.8
2018-06-19T12:50:17.935Z,0.8
2018-06-19T12:52:17.766Z,0.7
2018-06-19T12:54:17.600Z,0.8
2018-06-19T12:56:17.709Z,1
2018-06-19T12:58:18.529Z,1.2
2018-06-19T13:00:18.368Z,1.2
2018-06-19T13:02:18.173Z,1
2018-06-19T13:04:17.988Z,0.7
2018-06-19T13:06:17.555Z,1.1
2018-06-19T13:08:18.371Z,1.1
2018-06-19T13:10:17.694Z,1
2018-06-19T13:12:18.546Z,0.7
2018-06-19T13:14:18.389Z,0.8
2018-06-19T13:16:17.980Z,0.8
2018-06-19T13:18:17.847Z,0.9
2018-06-19T13:20:17.659Z,0.8
2018-06-19T13:22:18.485Z,0.7
2018-06-19T13:24:18.313Z,0.9
2018-06-19T13:26:18.417Z,1.5
2018-06-19T13:28:18.259Z,0.9
2018-06-19T13:30:18.076Z,0.8
2018-06-19T13:32:17.887Z,0.7
2018-06-19T13:34:17.703Z,1
2018-06-19T13:36:18.243Z,0.7
2018-06-19T13:38:18.076Z,1
2018-06-19T13:40:18.360Z,1.1
2018-06-19T13:42:18.144Z,0.9
2018-06-19T13:44:17.958Z,0.5
2018-06-19T13:46:18.532Z,0.7
2018-06-19T13:48:18.346Z,1.2
2018-06-19T13:50:18.319Z,0.7
2018-06-19T13:52:18.105Z,0.7
2018-06-19T13:54:17.937Z,0.7
2018-06-19T13:56:18.187Z,0.8
2018-06-19T13:58:17.996Z,0.7
2018-06-19T14:00:17.815Z,0.9
2018-06-19T14:02:17.628Z,0.9
2018-06-19T14:04:18.452Z,0.6
2018-06-19T14:06:17.975Z,0.9
2018-06-19T14:08:17.818Z,1.1
2018-06-19T14:10:18.377Z,0.9
2018-06-19T14:12:18.186Z,1.6
2018-06-19T14:14:18.031Z,0.7
2018-06-19T14:16:17.600Z,1.1
2018-06-19T14:18:18.496Z,1.2
2018-06-19T14:20:18.302Z,1
2018-06-19T14:22:18.150Z,0.7
2018-06-19T14:24:17.996Z,1
2018-06-19T14:26:17.576Z,0.9
2018-06-19T14:28:18.393Z,1.1
2018-06-19T14:30:18.211Z,0.6
2018-06-19T14:32:18.008Z,0.7
2018-06-19T14:34:17.807Z,1.1
2018-06-19T14:36:17.919Z,0.5
2018-06-19T14:38:17.717Z,0.5
2018-06-19T14:40:18.116Z,0.7
2018-06-19T14:42:17.556Z,0.6
2018-06-19T14:44:18.377Z,0.8
2018-06-19T14:46:18.467Z,0.5
2018-06-19T14:48:18.278Z,0.5
2018-06-19T14:50:18.074Z,0.2
2018-06-19T14:52:17.875Z,0.5
2018-06-19T14:54:17.718Z,0.5
2018-06-19T14:56:17.794Z,0.7
2018-06-19T14:58:17.632Z,0.8
2018-06-19T15:00:18.450Z,0.6
2018-06-19T15:02:18.285Z,0.6
2018-06-19T15:04:18.102Z,0.9
2018-06-19T15:06:17.858Z,0.5
2018-06-19T15:08:17.670Z,1.2
2018-06-19T15:10:18.065Z,0.7
2018-06-19T15:12:18.037Z,0.8
2018-06-19T15:14:17.888Z,0.6
2018-06-19T15:16:18.409Z,1
2018-06-19T15:18:18.344Z,1.1
2018-06-19T15:20:18.217Z,1.2
2018-06-19T15:22:18.030Z,0.9
2018-06-19T15:24:17.832Z,1.2
2018-06-19T15:26:18.405Z,1.4
2018-06-19T15:28:18.213Z,1.3
2018-06-19T15:30:18.050Z,0.9
2018-06-19T15:32:17.854Z,0.8
2018-06-19T15:34:17.697Z,1.1
2018-06-19T15:36:17.849Z,1.1
2018-06-19T15:38:17.634Z,0.8
2018-06-19T15:40:17.939Z,1.3
2018-06-19T15:42:17.737Z,1.4
2018-06-19T15:44:17.616Z,1.5
2018-06-19T15:46:17.868Z,0.7
2018-06-19T15:48:17.662Z,0.9
2018-06-19T15:50:18.484Z,0.9
2018-06-19T15:52:18.290Z,0.9
2018-06-19T15:54:18.117Z,0.9
2018-06-19T15:56:18.186Z,1.1
2018-06-19T15:58:18.001Z,0.9
2018-06-19T16:00:18.017Z,1.1
2018-06-19T16:02:17.812Z,1
2018-06-19T16:04:17.655Z,0.6
2018-06-19T16:06:18.286Z,0.5
2018-06-19T16:08:18.073Z,0.8
2018-06-19T16:10:18.369Z,0.9
2018-06-19T16:12:18.165Z,0.6
2018-06-19T16:14:17.987Z,1.1
2018-06-19T16:16:18.084Z,0.7
2018-06-19T16:18:17.936Z,9.4
2018-06-19T16:20:17.753Z,5.4
2018-06-19T16:22:17.559Z,20.4
2018-06-19T16:24:18.354Z,1.2
2018-06-19T16:26:17.995Z,0.8
2018-06-19T16:28:17.787Z,3.1
2018-06-19T16:30:17.609Z,5.7
2018-06-19T16:32:18.435Z,1.2
2018-06-19T16:34:18.237Z,2.2
2018-06-19T16:36:18.320Z,0.7
2018-06-19T16:38:18.127Z,1.1
2018-06-19T16:40:18.544Z,0.7
2018-06-19T16:42:18.375Z,1.3
2018-06-19T16:44:18.234Z,0.7
2018-06-19T16:46:17.922Z,1
2018-06-19T16:48:17.719Z,1.1
2018-06-19T16:50:18.516Z,1.1
2018-06-19T16:52:18.341Z,0.8
2018-06-19T16:54:18.140Z,0.8
2018-06-19T16:56:18.322Z,0.9
2018-06-19T16:58:18.114Z,0.7
2018-06-19T17:00:17.984Z,1.2
2018-06-19T17:02:17.798Z,1.2
2018-06-19T17:04:17.623Z,1.1
2018-06-19T17:06:18.252Z,0.9
2018-06-19T17:08:18.054Z,1
2018-06-19T17:10:18.393Z,0.6
2018-06-19T17:12:18.183Z,0.8
2018-06-19T17:14:17.985Z,0.9
2018-06-19T17:16:18.526Z,0.7
2018-06-19T17:18:18.410Z,0.7
2018-06-19T17:20:18.221Z,0.7
2018-06-19T17:22:18.040Z,0.7
2018-06-19T17:24:17.865Z,0.7
2018-06-19T17:26:18.414Z,0.8
2018-06-19T17:28:18.259Z,1
2018-06-19T17:30:18.104Z,1
2018-06-19T17:32:17.929Z,0.7
2018-06-19T17:34:17.760Z,0.6
2018-06-19T17:36:18.395Z,1.1
2018-06-19T17:38:18.232Z,0.5
2018-06-19T17:40:18.508Z,0.6
2018-06-19T17:42:18.339Z,0.6
2018-06-19T17:44:18.152Z,0.5
2018-06-19T17:46:18.298Z,0.4
2018-06-19T17:48:18.119Z,0.7
2018-06-19T17:50:17.935Z,0.6
2018-06-19T17:52:17.752Z,0.5
2018-06-19T17:54:17.603Z,0.5
2018-06-19T17:56:17.706Z,0.6
2018-06-19T17:58:18.532Z,0.4
2018-06-19T18:00:18.346Z,0.6
2018-06-19T18:02:18.158Z,0.6
2018-06-19T18:04:17.982Z,0.8
2018-06-19T18:06:18.037Z,0.6
2018-06-19T18:08:17.856Z,1.1
2018-06-19T18:10:18.233Z,0.7
2018-06-19T18:12:18.046Z,0.9
2018-06-19T18:14:17.900Z,0.4
2018-06-19T18:16:18.472Z,0.9
2018-06-19T18:18:18.361Z,0.5
2018-06-19T18:20:18.327Z,0.5
2018-06-19T18:22:18.148Z,0.8
2018-06-19T18:24:17.933Z,0.7
2018-06-19T18:26:18.211Z,0.7
2018-06-19T18:28:18.021Z,0.4
2018-06-19T18:30:17.974Z,0.9
2018-06-19T18:32:17.780Z,0.8
2018-06-19T18:34:17.566Z,0.8
2018-06-19T18:36:17.689Z,0.5
2018-06-19T18:38:18.505Z,1
2018-06-19T18:40:17.770Z,0.8
2018-06-19T18:42:17.562Z,0.7
2018-06-19T18:44:18.382Z,0.6
2018-06-19T18:46:18.478Z,0.6
2018-06-19T18:48:18.312Z,0.7
2018-06-19T18:50:18.132Z,1.1
2018-06-19T18:52:17.939Z,0.7
2018-06-19T18:54:17.761Z,0.7
2018-06-19T18:56:18.348Z,0.7
2018-06-19T18:58:18.150Z,0.9
2018-06-19T19:00:17.978Z,0.9
2018-06-19T19:02:17.792Z,0.6
2018-06-19T19:04:17.576Z,0.7
2018-06-19T19:06:17.672Z,0.8
2018-06-19T19:08:18.489Z,0.7
2018-06-19T19:10:17.793Z,1.3
2018-06-19T19:12:17.610Z,1.1
2018-06-19T19:14:18.425Z,0.7
2018-06-19T19:16:18.079Z,0.6
2018-06-19T19:18:17.998Z,0.9
2018-06-19T19:20:17.799Z,0.6
2018-06-19T19:22:17.609Z,1.1
2018-06-19T19:24:18.444Z,0.8
2018-06-19T19:26:17.543Z,0.9
2018-06-19T19:28:18.363Z,0.6
2018-06-19T19:30:18.173Z,0.7
2018-06-19T19:32:17.954Z,0.8
2018-06-19T19:34:17.756Z,0.9
2018-06-19T19:36:18.397Z,1.2
2018-06-19T19:38:18.188Z,0.8
2018-06-19T19:40:18.476Z,0.7
2018-06-19T19:42:18.289Z,0.6
2018-06-19T19:44:18.114Z,1.1
2018-06-19T19:46:18.425Z,0.7
2018-06-19T19:48:18.254Z,1
2018-06-19T19:50:18.112Z,0.7
2018-06-19T19:52:17.937Z,0.9
2018-06-19T19:54:17.735Z,1.1
2018-06-19T19:56:18.319Z,0.9
2018-06-19T19:58:18.119Z,1
2018-06-19T20:00:17.919Z,1.1
2018-06-19T20:02:17.731Z,1.4
2018-06-19T20:04:18.508Z,0.9
2018-06-19T20:06:18.110Z,0.9
2018-06-19T20:08:17.923Z,0.8
2018-06-19T20:10:18.206Z,1.1
2018-06-19T20:12:18.021Z,1.1
2018-06-19T20:14:17.841Z,1.1
2018-06-19T20:16:18.420Z,0.9
2018-06-19T20:18:18.338Z,1.1
2018-06-19T20:20:18.181Z,0.7
2018-06-19T20:22:17.985Z,0.9
2018-06-19T20:24:17.835Z,0.9
2018-06-19T20:26:18.418Z,1
2018-06-19T20:28:18.243Z,1.2
2018-06-19T20:30:18.041Z,1.3
2018-06-19T20:32:17.870Z,1.3
2018-06-19T20:34:17.708Z,1.1
2018-06-19T20:36:18.338Z,1.2
2018-06-19T20:38:18.131Z,1.3
2018-06-19T20:40:18.436Z,0.9
2018-06-19T20:42:18.254Z,0.9
2018-06-19T20:44:18.083Z,1
2018-06-19T20:46:17.643Z,1.2
2018-06-19T20:48:18.439Z,1
2018-06-19T20:50:18.407Z,1
2018-06-19T20:52:18.218Z,1.2
2018-06-19T20:54:18.044Z,1.1
2018-06-19T20:56:17.824Z,0.9
2018-06-19T20:58:17.622Z,0.8
2018-06-19T21:00:18.498Z,1
2018-06-19T21:02:18.302Z,1
2018-06-19T21:04:18.120Z,0.8
2018-06-19T21:06:18.223Z,0.7
2018-06-19T21:08:18.011Z,1.4
2018-06-19T21:10:18.259Z,1.2
2018-06-19T21:12:18.062Z,1
2018-06-19T21:14:17.862Z,1.2
2018-06-19T21:16:18.471Z,1
2018-06-19T21:18:18.372Z,0.9
2018-06-19T21:20:18.305Z,1.1
2018-06-19T21:22:18.121Z,1.3
2018-06-19T21:24:17.931Z,1
2018-06-19T21:26:18.490Z,0.8
2018-06-19T21:28:18.301Z,1.2
2018-06-19T21:30:18.120Z,1.1
2018-06-19T21:32:17.939Z,1
2018-06-19T21:34:17.723Z,1
2018-06-19T21:36:18.257Z,1.1
2018-06-19T21:38:18.033Z,1
2018-06-19T21:40:18.286Z,1.2
2018-06-19T21:42:18.074Z,0.9
2018-06-19T21:44:17.887Z,1.1
2018-06-19T21:46:17.991Z,0.9
2018-06-19T21:48:17.791Z,1.1
2018-06-19T21:50:17.598Z,1.1
2018-06-19T21:52:18.398Z,1.1
2018-06-19T21:54:18.214Z,1.2
2018-06-19T21:56:18.302Z,1
2018-06-19T21:58:18.093Z,1.1
2018-06-19T22:00:17.883Z,1.4
2018-06-19T22:02:17.706Z,1.3
2018-06-19T22:04:18.535Z,1.2
2018-06-19T22:06:17.625Z,1.3
2018-06-19T22:08:18.432Z,1.2
2018-06-19T22:10:17.806Z,1.3
2018-06-19T22:12:17.600Z,1.3
2018-06-19T22:14:18.432Z,1.6
2018-06-19T22:16:18.519Z,1
2018-06-19T22:18:18.409Z,1
2018-06-19T22:20:18.244Z,1.1
2018-06-19T22:22:18.057Z,1
2018-06-19T22:24:17.858Z,0.9
2018-06-19T22:26:17.928Z,0.9
2018-06-19T22:28:17.709Z,1.1
2018-06-19T22:30:18.560Z,1.1
2018-06-19T22:32:18.358Z,1.3
2018-06-19T22:34:18.155Z,1.5
2018-06-19T22:36:17.773Z,1.3
2018-06-19T22:38:17.579Z,1.5
2018-06-19T22:40:17.858Z,1.6
2018-06-19T22:42:17.658Z,1.3
2018-06-19T22:44:18.466Z,1.3
2018-06-19T22:46:18.013Z,1.1
2018-06-19T22:48:17.801Z,1.1
2018-06-19T22:50:17.614Z,1.1
2018-06-19T22:52:18.432Z,1.1
2018-06-19T22:54:18.211Z,1.6
2018-06-19T22:56:18.282Z,1.1
2018-06-19T22:58:18.088Z,1.2
2018-06-19T23:00:17.895Z,1.4
2018-06-19T23:02:17.674Z,1.1
2018-06-19T23:04:18.464Z,1.4
2018-06-19T23:06:18.069Z,1.4
2018-06-19T23:08:17.900Z,1.4
2018-06-19T23:10:18.146Z,1.2
2018-06-19T23:12:17.955Z,1.5
2018-06-19T23:14:17.768Z,1.6
2018-06-19T23:16:17.886Z,1.3
2018-06-19T23:18:17.755Z,1.4
2018-06-19T23:20:17.590Z,1.4
2018-06-19T23:22:18.395Z,1.2
2018-06-19T23:24:18.193Z,1.1
2018-06-19T23:26:18.346Z,1.2
2018-06-19T23:28:18.163Z,1.9
2018-06-19T23:30:18.045Z,1.5
2018-06-19T23:32:17.850Z,1.5
2018-06-19T23:34:17.623Z,1.1
2018-06-19T23:36:17.726Z,1.2
2018-06-19T23:38:17.531Z,1.5
2018-06-19T23:40:18.000Z,1.2
2018-06-19T23:42:17.812Z,0.9
2018-06-19T23:44:17.628Z,0.9
2018-06-19T23:46:18.198Z,1.6
2018-06-19T23:48:18.005Z,1.6
2018-06-19T23:50:17.819Z,1
2018-06-19T23:52:17.613Z,1.3
2018-06-19T23:54:18.407Z,1.4
2018-06-19T23:56:18.007Z,2
2018-06-19T23:58:17.810Z,1.7
